WAT3650 KRDU-KAUS
Flight info
| Callsign | WAT3650 |
|---|---|
| Flight time | N/A |
| Altitude | 32000 |
| Route | SHPRD4 SHPRD BURGG THRSR GARTS/N0456F340 LCH WEEED WLEEE7 |
| Aircraft | MD83/M-SDFGIRWY/S |
Departure
| Time | 2026-05-07 03:35 |
|---|---|
| Airport | Raleigh-Durham International Airport (KRDU) |
Arrival
| Time | N/A |
|---|---|
| Airport | Austin Bergstrom International Airport (KAUS) |
| Time | Latitude | Longitude | Altitude | Speed | Heading |
|---|---|---|---|---|---|
| 2026-05-07 02:36 | 35.87554 | -78.79511 | 394 ft | 0 kts | 314° |
| 2026-05-07 03:13 | 35.87551 | -78.79507 | 394 ft | 4 kts | 313° |
| 2026-05-07 03:13 | 35.87541 | -78.79496 | 391 ft | 4 kts | 300° |
| 2026-05-07 03:13 | 35.87538 | -78.79473 | 392 ft | 4 kts | 247° |
| 2026-05-07 03:13 | 35.87553 | -78.79447 | 393 ft | 3 kts | 225° |
| 2026-05-07 03:14 | 35.87556 | -78.79443 | 394 ft | 3 kts | 224° |
| 2026-05-07 03:23 | 35.87555 | -78.79444 | 394 ft | 0 kts | 224° |
| 2026-05-07 03:24 | 35.87539 | -78.79463 | 392 ft | 6 kts | 224° |
| 2026-05-07 03:24 | 35.87508 | -78.79501 | 391 ft | 6 kts | 224° |
| 2026-05-07 03:24 | 35.87478 | -78.79538 | 393 ft | 6 kts | 224° |
| 2026-05-07 03:25 | 35.87447 | -78.79575 | 391 ft | 6 kts | 224° |
| 2026-05-07 03:25 | 35.87418 | -78.79612 | 392 ft | 6 kts | 235° |
| 2026-05-07 03:25 | 35.87414 | -78.79659 | 391 ft | 6 kts | 289° |
| 2026-05-07 03:25 | 35.87440 | -78.79694 | 394 ft | 6 kts | 319° |
| 2026-05-07 03:26 | 35.87473 | -78.79731 | 393 ft | 7 kts | 318° |
| 2026-05-07 03:26 | 35.87510 | -78.79774 | 393 ft | 8 kts | 316° |
| 2026-05-07 03:26 | 35.87555 | -78.79826 | 389 ft | 12 kts | 328° |
| 2026-05-07 03:26 | 35.87629 | -78.79779 | 385 ft | 9 kts | 48° |
| 2026-05-07 03:27 | 35.87671 | -78.79727 | 386 ft | 8 kts | 45° |
| 2026-05-07 03:27 | 35.87709 | -78.79680 | 388 ft | 10 kts | 45° |
| 2026-05-07 03:27 | 35.87776 | -78.79597 | 389 ft | 17 kts | 45° |
| 2026-05-07 03:27 | 35.87874 | -78.79476 | 391 ft | 21 kts | 44° |
| 2026-05-07 03:28 | 35.87971 | -78.79359 | 393 ft | 19 kts | 44° |
| 2026-05-07 03:28 | 35.88063 | -78.79245 | 392 ft | 18 kts | 46° |
| 2026-05-07 03:28 | 35.88149 | -78.79137 | 393 ft | 17 kts | 45° |
| 2026-05-07 03:28 | 35.88233 | -78.79033 | 391 ft | 17 kts | 45° |
| 2026-05-07 03:29 | 35.88311 | -78.78935 | 395 ft | 15 kts | 45° |
| 2026-05-07 03:29 | 35.88383 | -78.78847 | 398 ft | 14 kts | 45° |
| 2026-05-07 03:29 | 35.88452 | -78.78763 | 400 ft | 13 kts | 45° |
| 2026-05-07 03:29 | 35.88512 | -78.78689 | 402 ft | 11 kts | 44° |
| 2026-05-07 03:30 | 35.88563 | -78.78626 | 403 ft | 10 kts | 45° |
| 2026-05-07 03:30 | 35.88614 | -78.78564 | 403 ft | 11 kts | 44° |
| 2026-05-07 03:30 | 35.88678 | -78.78487 | 404 ft | 14 kts | 44° |
| 2026-05-07 03:30 | 35.88750 | -78.78394 | 405 ft | 16 kts | 45° |
| 2026-05-07 03:31 | 35.88839 | -78.78285 | 405 ft | 20 kts | 45° |
| 2026-05-07 03:31 | 35.88941 | -78.78160 | 406 ft | 22 kts | 45° |
| 2026-05-07 03:31 | 35.89046 | -78.78029 | 404 ft | 21 kts | 45° |
| 2026-05-07 03:31 | 35.89141 | -78.77913 | 411 ft | 18 kts | 47° |
| 2026-05-07 03:32 | 35.89226 | -78.77807 | 411 ft | 12 kts | 45° |
| 2026-05-07 03:32 | 35.89264 | -78.77761 | 412 ft | 2 kts | 42° |
| 2026-05-07 03:32 | 35.89280 | -78.77748 | 408 ft | 4 kts | 24° |
| 2026-05-07 03:32 | 35.89296 | -78.77746 | 412 ft | 0 kts | 357° |
| 2026-05-07 03:33 | 35.89298 | -78.77746 | 412 ft | 1 kts | 356° |
| 2026-05-07 03:33 | 35.89315 | -78.77751 | 416 ft | 4 kts | 340° |
| 2026-05-07 03:33 | 35.89352 | -78.77788 | 418 ft | 4 kts | 311° |
| 2026-05-07 03:33 | 35.89361 | -78.77846 | 417 ft | 11 kts | 227° |
| 2026-05-07 03:34 | 35.89297 | -78.77910 | 416 ft | 26 kts | 223° |
| 2026-05-07 03:34 | 35.89018 | -78.78240 | 407 ft | 87 kts | 226° |
| 2026-05-07 03:34 | 35.88460 | -78.78948 | 394 ft | 142 kts | 225° |
| 2026-05-07 03:34 | 35.87636 | -78.79921 | 457 ft | 182 kts | 223° |
| 2026-05-07 03:35 | 35.86710 | -78.81019 | 1178 ft | 178 kts | 225° |
| 2026-05-07 03:35 | 35.85873 | -78.82026 | 2052 ft | 172 kts | 224° |
| 2026-05-07 03:35 | 35.84896 | -78.83184 | 1738 ft | 217 kts | 224° |
| 2026-05-07 03:35 | 35.83803 | -78.84493 | 2126 ft | 221 kts | 224° |
| 2026-05-07 03:36 | 35.82694 | -78.85845 | 2530 ft | 226 kts | 225° |
| 2026-05-07 03:36 | 35.81532 | -78.87246 | 2760 ft | 244 kts | 225° |
| 2026-05-07 03:36 | 35.80277 | -78.88749 | 3042 ft | 258 kts | 225° |
| 2026-05-07 03:36 | 35.78981 | -78.90269 | 3790 ft | 247 kts | 224° |
| 2026-05-07 03:37 | 35.77826 | -78.91586 | 5282 ft | 213 kts | 225° |
| 2026-05-07 03:37 | 35.76818 | -78.92932 | 5682 ft | 224 kts | 244° |
| 2026-05-07 03:37 | 35.76534 | -78.94854 | 5885 ft | 242 kts | 277° |
| 2026-05-07 03:37 | 35.77170 | -78.96836 | 6116 ft | 255 kts | 292° |
| 2026-05-07 03:38 | 35.77947 | -78.98792 | 6708 ft | 253 kts | 289° |
| 2026-05-07 03:38 | 35.78604 | -79.00802 | 7224 ft | 254 kts | 285° |
| 2026-05-07 03:38 | 35.79171 | -79.02870 | 7731 ft | 255 kts | 283° |
| 2026-05-07 03:38 | 35.79667 | -79.04972 | 8238 ft | 256 kts | 281° |
| 2026-05-07 03:39 | 35.80103 | -79.07072 | 8700 ft | 257 kts | 279° |
| 2026-05-07 03:39 | 35.80502 | -79.09229 | 9176 ft | 258 kts | 278° |
| 2026-05-07 03:39 | 35.80867 | -79.11399 | 9658 ft | 260 kts | 278° |
| 2026-05-07 03:39 | 35.81209 | -79.13601 | 10052 ft | 263 kts | 277° |
| 2026-05-07 03:40 | 35.81550 | -79.15865 | 10256 ft | 274 kts | 277° |
| 2026-05-07 03:40 | 35.81894 | -79.18225 | 10462 ft | 284 kts | 277° |
| 2026-05-07 03:40 | 35.82244 | -79.20661 | 10689 ft | 293 kts | 277° |
| 2026-05-07 03:40 | 35.82598 | -79.23126 | 11011 ft | 297 kts | 277° |
| 2026-05-07 03:41 | 35.82960 | -79.25636 | 11440 ft | 297 kts | 277° |
| 2026-05-07 03:41 | 35.83322 | -79.28148 | 11879 ft | 298 kts | 277° |
| 2026-05-07 03:41 | 35.83590 | -79.30682 | 12278 ft | 298 kts | 268° |
| 2026-05-07 03:41 | 35.83468 | -79.33232 | 12664 ft | 298 kts | 263° |
| 2026-05-07 03:42 | 35.83244 | -79.35779 | 13048 ft | 300 kts | 262° |
| 2026-05-07 03:42 | 35.83008 | -79.38343 | 13447 ft | 302 kts | 262° |
| 2026-05-07 03:42 | 35.82771 | -79.40925 | 13831 ft | 304 kts | 262° |
| 2026-05-07 03:42 | 35.82535 | -79.43521 | 14238 ft | 304 kts | 263° |
| 2026-05-07 03:43 | 35.82308 | -79.46109 | 14636 ft | 303 kts | 263° |
| 2026-05-07 03:43 | 35.82093 | -79.48691 | 15020 ft | 303 kts | 264° |
| 2026-05-07 03:43 | 35.81888 | -79.51282 | 15363 ft | 304 kts | 264° |
| 2026-05-07 03:43 | 35.81676 | -79.53847 | 15738 ft | 304 kts | 262° |
| 2026-05-07 03:44 | 35.81316 | -79.56425 | 16103 ft | 305 kts | 259° |
| 2026-05-07 03:44 | 35.80877 | -79.58983 | 16462 ft | 305 kts | 258° |
| 2026-05-07 03:44 | 35.80417 | -79.61542 | 16831 ft | 305 kts | 258° |
| 2026-05-07 03:44 | 35.79954 | -79.64099 | 17183 ft | 306 kts | 259° |
| 2026-05-07 03:45 | 35.79493 | -79.66657 | 17547 ft | 306 kts | 259° |
| 2026-05-07 03:45 | 35.79037 | -79.69213 | 17919 ft | 305 kts | 259° |
| 2026-05-07 03:45 | 35.78589 | -79.71768 | 18256 ft | 306 kts | 260° |
| 2026-05-07 03:45 | 35.78146 | -79.74336 | 18552 ft | 307 kts | 260° |
| 2026-05-07 03:46 | 35.77706 | -79.76916 | 18827 ft | 308 kts | 260° |
| 2026-05-07 03:46 | 35.77272 | -79.79472 | 19081 ft | 310 kts | 260° |
| 2026-05-07 03:46 | 35.76832 | -79.82072 | 19374 ft | 310 kts | 260° |
| 2026-05-07 03:46 | 35.76391 | -79.84674 | 19665 ft | 311 kts | 260° |
| 2026-05-07 03:47 | 35.75949 | -79.87279 | 19928 ft | 312 kts | 260° |
| 2026-05-07 03:47 | 35.75503 | -79.89899 | 20177 ft | 313 kts | 260° |
| 2026-05-07 03:47 | 35.75056 | -79.92531 | 20440 ft | 314 kts | 261° |
| 2026-05-07 03:47 | 35.74606 | -79.95169 | 20712 ft | 315 kts | 260° |
| 2026-05-07 03:48 | 35.74155 | -79.97808 | 20972 ft | 316 kts | 260° |
| 2026-05-07 03:48 | 35.73702 | -80.00460 | 21207 ft | 317 kts | 260° |
| 2026-05-07 03:48 | 35.73247 | -80.03124 | 21438 ft | 318 kts | 260° |
| 2026-05-07 03:48 | 35.72790 | -80.05760 | 21681 ft | 319 kts | 260° |
| 2026-05-07 03:49 | 35.72308 | -80.08424 | 21959 ft | 319 kts | 259° |
| 2026-05-07 03:49 | 35.71819 | -80.11097 | 22193 ft | 321 kts | 259° |
| 2026-05-07 03:49 | 35.71331 | -80.13782 | 22440 ft | 322 kts | 260° |
| 2026-05-07 03:49 | 35.70848 | -80.16483 | 22694 ft | 323 kts | 260° |
| 2026-05-07 03:50 | 35.70370 | -80.19183 | 22965 ft | 324 kts | 260° |
| 2026-05-07 03:50 | 35.69896 | -80.21896 | 23236 ft | 324 kts | 260° |
| 2026-05-07 03:50 | 35.69423 | -80.24618 | 23485 ft | 326 kts | 260° |
| 2026-05-07 03:50 | 35.68951 | -80.27346 | 23712 ft | 326 kts | 260° |
| 2026-05-07 03:51 | 35.68485 | -80.30047 | 23935 ft | 327 kts | 260° |
| 2026-05-07 03:51 | 35.68011 | -80.32794 | 24133 ft | 328 kts | 260° |
| 2026-05-07 03:51 | 35.67534 | -80.35549 | 24321 ft | 329 kts | 260° |
| 2026-05-07 03:51 | 35.67056 | -80.38314 | 24469 ft | 330 kts | 260° |
| 2026-05-07 03:52 | 35.66576 | -80.41080 | 24667 ft | 331 kts | 260° |
| 2026-05-07 03:52 | 35.66096 | -80.43849 | 24870 ft | 332 kts | 260° |
| 2026-05-07 03:52 | 35.65619 | -80.46597 | 25054 ft | 333 kts | 259° |
| 2026-05-07 03:52 | 35.64856 | -80.49312 | 25218 ft | 338 kts | 249° |
| 2026-05-07 03:53 | 35.63786 | -80.51897 | 25428 ft | 340 kts | 246° |
| 2026-05-07 03:53 | 35.62661 | -80.54461 | 25611 ft | 342 kts | 246° |
| 2026-05-07 03:53 | 35.61530 | -80.57034 | 25797 ft | 342 kts | 246° |
| 2026-05-07 03:53 | 35.60400 | -80.59614 | 26007 ft | 343 kts | 246° |
| 2026-05-07 03:54 | 35.59276 | -80.62205 | 26177 ft | 344 kts | 246° |
| 2026-05-07 03:54 | 35.58160 | -80.64810 | 26324 ft | 345 kts | 246° |
| 2026-05-07 03:54 | 35.57051 | -80.67428 | 26515 ft | 345 kts | 247° |
| 2026-05-07 03:54 | 35.55949 | -80.70049 | 26688 ft | 346 kts | 246° |
| 2026-05-07 03:55 | 35.54847 | -80.72678 | 26904 ft | 347 kts | 246° |
| 2026-05-07 03:55 | 35.53754 | -80.75287 | 27060 ft | 348 kts | 246° |
| 2026-05-07 03:55 | 35.52647 | -80.77930 | 27252 ft | 348 kts | 247° |
| 2026-05-07 03:55 | 35.51534 | -80.80586 | 27423 ft | 349 kts | 246° |
| 2026-05-07 03:56 | 35.50422 | -80.83236 | 27573 ft | 350 kts | 246° |
| 2026-05-07 03:56 | 35.49303 | -80.85895 | 27741 ft | 350 kts | 246° |
| 2026-05-07 03:56 | 35.48182 | -80.88559 | 27890 ft | 351 kts | 246° |
| 2026-05-07 03:56 | 35.47068 | -80.91200 | 28041 ft | 352 kts | 246° |
| 2026-05-07 03:57 | 35.45944 | -80.93866 | 28207 ft | 352 kts | 246° |
| 2026-05-07 03:57 | 35.44813 | -80.96534 | 28334 ft | 353 kts | 246° |
| 2026-05-07 03:57 | 35.43668 | -80.99216 | 28472 ft | 354 kts | 246° |
| 2026-05-07 03:57 | 35.42896 | -81.01019 | 28596 ft | 354 kts | 246° |
| 2026-05-07 03:58 | 35.41766 | -81.03659 | 28760 ft | 354 kts | 246° |
| 2026-05-07 03:58 | 35.40620 | -81.06340 | 28877 ft | 355 kts | 246° |
| 2026-05-07 03:58 | 35.39472 | -81.09024 | 29046 ft | 355 kts | 246° |
| 2026-05-07 03:58 | 35.38327 | -81.11706 | 29197 ft | 355 kts | 246° |
| 2026-05-07 03:59 | 35.37179 | -81.14395 | 29332 ft | 356 kts | 246° |
| 2026-05-07 03:59 | 35.36027 | -81.17098 | 29471 ft | 356 kts | 246° |
| 2026-05-07 03:59 | 35.34892 | -81.19756 | 29598 ft | 357 kts | 246° |
| 2026-05-07 04:00 | 35.32580 | -81.25167 | 29827 ft | 359 kts | 246° |
| 2026-05-07 04:00 | 35.30241 | -81.30645 | 29812 ft | 371 kts | 246° |
| 2026-05-07 04:01 | 35.27793 | -81.36375 | 29916 ft | 384 kts | 245° |
| 2026-05-07 04:01 | 35.26553 | -81.39266 | 30242 ft | 383 kts | 245° |
| 2026-05-07 04:01 | 35.25311 | -81.42135 | 30662 ft | 379 kts | 245° |
| 2026-05-07 04:01 | 35.24076 | -81.44968 | 31116 ft | 374 kts | 245° |
| 2026-05-07 04:02 | 35.22861 | -81.47756 | 31546 ft | 370 kts | 245° |
| 2026-05-07 04:02 | 35.21670 | -81.50499 | 31778 ft | 371 kts | 245° |
| 2026-05-07 04:02 | 35.20462 | -81.53288 | 31893 ft | 374 kts | 245° |
| 2026-05-07 04:03 | 35.17916 | -81.58895 | 31972 ft | 379 kts | 242° |
| 2026-05-07 04:03 | 35.14981 | -81.64259 | 31985 ft | 379 kts | 240° |
| 2026-05-07 04:04 | 35.12028 | -81.69603 | 31990 ft | 379 kts | 240° |
| 2026-05-07 04:04 | 35.09117 | -81.74991 | 31988 ft | 381 kts | 240° |
| 2026-05-07 04:05 | 35.06229 | -81.80405 | 31986 ft | 383 kts | 241° |
| 2026-05-07 04:05 | 35.03312 | -81.85884 | 31983 ft | 386 kts | 240° |
| 2026-05-07 04:06 | 35.00371 | -81.91391 | 31986 ft | 388 kts | 240° |
| 2026-05-07 04:06 | 34.97428 | -81.96892 | 31974 ft | 391 kts | 240° |
| 2026-05-07 04:07 | 34.94444 | -82.02447 | 32204 ft | 390 kts | 240° |
| 2026-05-07 04:07 | 34.92951 | -82.05195 | 32397 ft | 388 kts | 240° |
| 2026-05-07 04:07 | 34.91455 | -82.07942 | 32566 ft | 387 kts | 240° |
| 2026-05-07 04:07 | 34.89971 | -82.10672 | 32689 ft | 387 kts | 240° |
| 2026-05-07 04:08 | 34.88487 | -82.13410 | 32770 ft | 387 kts | 240° |
| 2026-05-07 04:08 | 34.85515 | -82.18903 | 32918 ft | 388 kts | 240° |
| 2026-05-07 04:09 | 34.82560 | -82.24356 | 33113 ft | 388 kts | 240° |
| 2026-05-07 04:09 | 34.81073 | -82.27100 | 33230 ft | 387 kts | 240° |
| 2026-05-07 04:09 | 34.79588 | -82.29841 | 33301 ft | 388 kts | 241° |
| 2026-05-07 04:10 | 34.76609 | -82.35333 | 33414 ft | 389 kts | 240° |
| 2026-05-07 04:10 | 34.73627 | -82.40826 | 33583 ft | 389 kts | 241° |
| 2026-05-07 04:11 | 34.70627 | -82.46307 | 33826 ft | 387 kts | 241° |
| 2026-05-07 04:11 | 34.67648 | -82.51720 | 33957 ft | 389 kts | 241° |
| 2026-05-07 04:12 | 34.64628 | -82.57216 | 33972 ft | 392 kts | 241° |
| 2026-05-07 04:12 | 34.61603 | -82.62722 | 33988 ft | 390 kts | 241° |
| 2026-05-07 04:13 | 34.58602 | -82.68188 | 33994 ft | 388 kts | 242° |
| 2026-05-07 04:13 | 34.55630 | -82.73600 | 34004 ft | 388 kts | 242° |
| 2026-05-07 04:14 | 34.52631 | -82.79056 | 33994 ft | 389 kts | 242° |
| 2026-05-07 04:14 | 34.49623 | -82.84521 | 33994 ft | 390 kts | 242° |
| 2026-05-07 04:15 | 34.46583 | -82.89987 | 33984 ft | 390 kts | 241° |